Pyron, Texas
Current Conditions -  °F | °C
As of 4:55 PM on Thursday 23 Oct 2014 (Local Time) from KSWW Reporting Station
Clear Clear  
Wind Chill: 78°   Ceiling: Unl
Heat Index: 79°   Visibility: 10mi
Dew Point: 60°   Wind: 10mph
Humidity: 53%   Direction: 220°SW
Pressure: 30.11"   Gusts: NA
Location:  32.3875°N, 100.536°W
Report Text: KSWW 232155Z AUTO 22009KT 10SM CLR 26/16 A3011 RMK AO2 T02560155
Loading
Personal Weather Stations






























Interactive Weather Map New forecast layout! Learn more

10-Day Weather Forecast

Advertisements
Track Severe Weather on mobile